createdAt,value
2019-01-27T00:00:44.283Z,47.10
2019-01-27T00:03:18.967Z,47.20
2019-01-27T00:05:53.843Z,47.10
2019-01-27T00:08:47.531Z,47.20
2019-01-27T00:11:22.238Z,47.10
2019-01-27T00:13:57.531Z,47.10
2019-01-27T00:16:32.026Z,47.10
2019-01-27T00:19:06.772Z,47.10
2019-01-27T00:21:41.704Z,47.10
2019-01-27T00:24:16.130Z,47.10
2019-01-27T00:26:51.184Z,47.10
2019-01-27T00:29:25.967Z,47.00
2019-01-27T00:32:01.081Z,47.00
2019-01-27T00:34:35.382Z,46.90
2019-01-27T00:37:09.733Z,47.60
2019-01-27T00:39:44.350Z,46.40
2019-01-27T00:42:18.986Z,46.80
2019-01-27T00:44:53.691Z,46.70
2019-01-27T00:47:28.403Z,46.60
2019-01-27T00:50:03.866Z,46.50
2019-01-27T00:52:38.500Z,46.50
2019-01-27T00:55:19.342Z,46.30
2019-01-27T00:57:54.684Z,46.40
2019-01-27T01:00:29.847Z,46.40
2019-01-27T01:03:04.263Z,46.40
2019-01-27T01:05:39.012Z,46.40
2019-01-27T01:08:14.170Z,46.40
2019-01-27T01:10:48.824Z,46.40
2019-01-27T01:13:24.245Z,46.40
2019-01-27T01:15:58.451Z,46.40
2019-01-27T01:18:33.135Z,46.30
2019-01-27T01:21:07.974Z,46.20
2019-01-27T01:23:43.378Z,46.20
2019-01-27T01:26:18.149Z,46.20
2019-01-27T01:28:53.686Z,46.70
2019-01-27T01:31:47.429Z,46.00
2019-01-27T01:34:22.483Z,45.80
2019-01-27T01:36:57.339Z,45.70
2019-01-27T01:39:32.151Z,45.50
2019-01-27T01:42:06.655Z,45.60
2019-01-27T01:44:41.457Z,45.50
2019-01-27T01:47:16.251Z,45.40
2019-01-27T01:49:51.218Z,45.30
2019-01-27T01:52:26.380Z,45.20
2019-01-27T01:55:01.242Z,45.00
2019-01-27T01:57:38.500Z,44.90
2019-01-27T02:00:15.698Z,44.90
2019-01-27T02:03:09.475Z,45.00
2019-01-27T02:05:44.158Z,44.90
2019-01-27T02:08:19.335Z,44.70
2019-01-27T02:10:54.298Z,44.80
2019-01-27T02:13:28.979Z,44.60
2019-01-27T02:16:13.819Z,44.50
2019-01-27T02:18:49.102Z,44.60
2019-01-27T02:21:24.828Z,44.60
2019-01-27T02:23:59.667Z,44.60
2019-01-27T02:26:34.414Z,45.30
2019-01-27T02:29:09.467Z,44.40
2019-01-27T02:31:44.023Z,44.30
2019-01-27T02:34:18.507Z,44.20
2019-01-27T02:36:53.249Z,44.10
2019-01-27T02:39:28.271Z,44.00
2019-01-27T02:42:02.912Z,44.00
2019-01-27T02:44:38.297Z,44.20
2019-01-27T02:47:12.334Z,44.20
2019-01-27T02:49:48.034Z,44.20
2019-01-27T02:52:22.514Z,44.20
2019-01-27T02:54:57.952Z,44.30
2019-01-27T02:57:32.901Z,44.30
2019-01-27T03:00:08.498Z,44.10
2019-01-27T03:02:42.897Z,44.00
2019-01-27T03:05:38.853Z,44.00
2019-01-27T03:08:13.688Z,44.00
2019-01-27T03:10:54.543Z,43.90
2019-01-27T03:13:29.397Z,43.80
2019-01-27T03:16:04.766Z,43.60
2019-01-27T03:18:39.481Z,43.40
2019-01-27T03:21:14.709Z,43.30
2019-01-27T03:23:49.387Z,43.30
2019-01-27T03:26:24.450Z,43.20
2019-01-27T03:28:59.259Z,43.30
2019-01-27T03:31:34.729Z,43.10
2019-01-27T03:34:09.508Z,42.90
2019-01-27T03:36:44.539Z,42.90
2019-01-27T03:39:19.331Z,42.90
2019-01-27T03:41:54.556Z,42.90
2019-01-27T03:47:23.547Z,42.70
2019-01-27T03:49:58.610Z,42.70
2019-01-27T03:52:33.460Z,42.60
2019-01-27T03:55:09.734Z,42.70
2019-01-27T03:57:44.721Z,42.80
2019-01-27T04:00:21.733Z,43.30
2019-01-27T04:02:56.749Z,42.80
2019-01-27T04:05:31.631Z,42.80
2019-01-27T04:08:06.331Z,42.70
2019-01-27T04:10:41.386Z,42.70
2019-01-27T04:13:16.049Z,42.60
2019-01-27T04:15:51.303Z,42.50
2019-01-27T04:18:25.872Z,42.30
2019-01-27T04:21:03.614Z,42.20
2019-01-27T04:23:38.404Z,42.20
2019-01-27T04:26:14.197Z,42.20
2019-01-27T04:28:48.750Z,42.10
2019-01-27T04:31:23.723Z,42.00
2019-01-27T04:33:58.307Z,42.10
2019-01-27T04:36:33.485Z,42.00
2019-01-27T04:39:10.617Z,41.90
2019-01-27T04:41:45.479Z,42.70
2019-01-27T04:44:19.986Z,42.00
2019-01-27T04:46:54.592Z,41.90
2019-01-27T04:49:29.566Z,42.00
2019-01-27T04:52:03.938Z,42.00
2019-01-27T04:54:39.007Z,42.10
2019-01-27T04:57:13.841Z,42.00
2019-01-27T04:59:48.837Z,42.10
2019-01-27T05:02:23.571Z,42.00
2019-01-27T05:04:58.572Z,42.20
2019-01-27T05:07:33.425Z,42.10
2019-01-27T05:10:27.514Z,42.00
2019-01-27T05:13:02.225Z,42.10
2019-01-27T05:15:37.532Z,42.00
2019-01-27T05:18:13.160Z,41.90
2019-01-27T05:20:47.791Z,41.90
2019-01-27T05:23:23.951Z,42.00
2019-01-27T05:25:58.607Z,41.80
2019-01-27T05:28:33.558Z,41.80
2019-01-27T05:31:08.075Z,41.80
2019-01-27T05:33:42.875Z,41.60
2019-01-27T05:36:18.139Z,41.50
2019-01-27T05:38:52.852Z,41.60
2019-01-27T05:41:27.881Z,41.60
2019-01-27T05:44:04.072Z,41.60
2019-01-27T05:46:57.597Z,41.60
2019-01-27T05:49:32.360Z,41.50
2019-01-27T05:52:07.407Z,41.60
2019-01-27T05:54:44.630Z,41.60
2019-01-27T05:57:21.103Z,41.50
2019-01-27T05:59:55.633Z,42.20
2019-01-27T06:02:30.453Z,41.50
2019-01-27T06:05:05.075Z,41.40
2019-01-27T06:07:40.002Z,41.40
2019-01-27T06:10:15.540Z,41.40
2019-01-27T06:12:50.424Z,41.40
2019-01-27T06:15:24.951Z,41.30
2019-01-27T06:18:00.935Z,41.30
2019-01-27T06:20:35.555Z,41.30
2019-01-27T06:23:10.547Z,41.40
2019-01-27T06:25:45.364Z,41.30
2019-01-27T06:28:20.402Z,41.30
2019-01-27T06:31:12.896Z,41.40
2019-01-27T06:34:04.000Z,41.20
2019-01-27T06:36:39.162Z,41.20
2019-01-27T06:39:14.069Z,41.20
2019-01-27T06:41:49.071Z,41.20
2019-01-27T06:44:42.688Z,41.10
2019-01-27T06:47:17.711Z,41.10
2019-01-27T06:49:52.427Z,41.10
2019-01-27T06:52:27.160Z,41.00
2019-01-27T06:55:01.760Z,41.00
2019-01-27T06:57:36.809Z,41.00
2019-01-27T07:00:27.906Z,41.00
2019-01-27T07:06:16.274Z,41.50
2019-01-27T07:09:15.721Z,41.00
2019-01-27T07:12:01.271Z,41.10
2019-01-27T07:15:04.196Z,41.10
2019-01-27T07:17:57.130Z,41.10
2019-01-27T07:20:55.696Z,41.20
2019-01-27T07:24:04.087Z,41.20
2019-01-27T07:26:57.753Z,42.00
2019-01-27T07:29:48.946Z,41.20
2019-01-27T07:32:39.043Z,41.30
2019-01-27T07:35:38.631Z,41.20
2019-01-27T07:38:31.728Z,41.30
2019-01-27T07:41:24.820Z,41.30
2019-01-27T07:44:26.197Z,41.20
2019-01-27T07:47:18.092Z,41.00
2019-01-27T07:50:14.604Z,41.10
2019-01-27T07:53:13.783Z,41.10
2019-01-27T07:56:06.907Z,41.10
2019-01-27T07:58:52.819Z,41.10
2019-01-27T08:01:54.761Z,41.10
2019-01-27T08:04:48.120Z,41.20
2019-01-27T08:08:00.194Z,41.20
2019-01-27T08:11:02.349Z,41.20
2019-01-27T08:13:44.360Z,41.20
2019-01-27T08:16:40.461Z,41.20
2019-01-27T08:19:38.394Z,41.20
2019-01-27T08:22:38.110Z,41.10
2019-01-27T08:25:38.633Z,41.10
2019-01-27T08:28:34.370Z,41.00
2019-01-27T08:31:22.881Z,41.10
2019-01-27T08:34:06.403Z,41.10
2019-01-27T08:36:56.194Z,41.20
2019-01-27T08:39:51.864Z,40.90
2019-01-27T08:42:43.672Z,40.80
2019-01-27T08:45:34.198Z,40.80
2019-01-27T08:48:09.056Z,40.80
2019-01-27T08:50:43.732Z,40.80
2019-01-27T08:53:18.780Z,40.80
2019-01-27T08:55:53.607Z,40.80
2019-01-27T08:58:28.015Z,40.80
2019-01-27T09:01:12.228Z,40.90
2019-01-27T09:03:59.769Z,40.60
2019-01-27T09:06:52.221Z,40.60
2019-01-27T09:09:57.544Z,40.60
2019-01-27T09:12:56.921Z,40.50
2019-01-27T09:15:52.938Z,40.50
2019-01-27T09:18:44.594Z,40.40
2019-01-27T09:21:29.846Z,40.40
2019-01-27T09:24:23.387Z,40.50
2019-01-27T09:27:22.263Z,40.40
2019-01-27T09:30:27.880Z,40.40
2019-01-27T09:33:12.028Z,40.30
2019-01-27T09:36:02.892Z,40.20
2019-01-27T09:39:10.714Z,40.80
2019-01-27T09:42:14.292Z,40.00
2019-01-27T09:45:07.225Z,40.00
2019-01-27T09:47:54.039Z,40.80
2019-01-27T09:50:40.408Z,40.00
2019-01-27T09:53:32.258Z,40.10
2019-01-27T09:56:14.653Z,40.10
2019-01-27T09:59:16.543Z,40.10
2019-01-27T10:02:27.353Z,40.10
2019-01-27T10:05:26.321Z,40.20
2019-01-27T10:08:36.952Z,40.20
2019-01-27T10:11:37.780Z,40.10
2019-01-27T10:14:22.413Z,40.10
2019-01-27T10:17:15.295Z,40.30
2019-01-27T10:20:18.587Z,40.40
2019-01-27T10:23:15.524Z,40.50
2019-01-27T10:26:24.098Z,40.60
2019-01-27T10:29:35.465Z,40.70
2019-01-27T10:32:27.285Z,40.70
2019-01-27T10:35:10.382Z,40.80
2019-01-27T10:38:01.839Z,41.00
2019-01-27T10:41:01.211Z,41.00
2019-01-27T10:47:09.670Z,41.20
2019-01-27T10:50:03.140Z,41.40
2019-01-27T10:53:09.641Z,41.50
2019-01-27T10:56:06.028Z,41.60
2019-01-27T10:58:57.851Z,41.70
2019-01-27T11:01:49.612Z,42.00
2019-01-27T11:04:40.971Z,42.10
2019-01-27T11:07:41.264Z,42.10
2019-01-27T11:10:42.935Z,42.10
2019-01-27T11:13:38.852Z,42.20
2019-01-27T11:16:33.577Z,42.50
2019-01-27T11:19:26.842Z,42.50
2019-01-27T11:22:09.957Z,42.60
2019-01-27T11:25:12.217Z,42.80
2019-01-27T11:28:04.875Z,43.10
2019-01-27T11:33:44.840Z,42.90
2019-01-27T11:36:39.930Z,43.00
2019-01-27T11:39:26.880Z,43.20
2019-01-27T11:45:39.508Z,42.90
2019-01-27T11:48:24.268Z,41.90
2019-01-27T11:51:05.592Z,40.80
2019-01-27T11:53:40.126Z,40.10
2019-01-27T11:56:15.399Z,39.20
2019-01-27T11:58:50.149Z,38.40
2019-01-27T12:01:25.721Z,37.70
2019-01-27T12:04:00.320Z,37.30
2019-01-27T12:06:37.924Z,37.50
2019-01-27T12:09:13.359Z,38.60
2019-01-27T12:11:48.669Z,40.10
2019-01-27T12:14:23.190Z,40.30
2019-01-27T12:16:57.968Z,39.50
2019-01-27T12:19:32.940Z,39.10
2019-01-27T12:22:07.893Z,40.50
2019-01-27T12:24:42.685Z,41.60
2019-01-27T12:27:17.522Z,42.10
2019-01-27T12:29:52.505Z,41.70
2019-01-27T12:32:46.361Z,41.30
2019-01-27T12:35:21.990Z,42.60
2019-01-27T12:37:57.121Z,43.60
2019-01-27T12:40:31.806Z,43.30
2019-01-27T12:43:06.580Z,43.30
2019-01-27T12:45:41.374Z,44.30
2019-01-27T12:48:18.205Z,45.00
2019-01-27T12:50:53.759Z,44.40
2019-01-27T12:53:28.566Z,44.60
2019-01-27T12:56:03.570Z,45.40
2019-01-27T12:58:38.228Z,45.90
2019-01-27T13:01:15.503Z,45.10
2019-01-27T13:03:50.878Z,45.40
2019-01-27T13:06:25.755Z,46.30
2019-01-27T13:09:00.126Z,45.80
2019-01-27T13:11:35.321Z,45.30
2019-01-27T13:14:28.904Z,46.20
2019-01-27T13:17:07.574Z,47.00
2019-01-27T13:19:39.846Z,46.10
2019-01-27T13:22:14.217Z,46.00
2019-01-27T13:24:49.225Z,46.70
2019-01-27T13:27:24.166Z,47.40
2019-01-27T13:29:59.048Z,46.90
2019-01-27T13:32:33.656Z,46.70
2019-01-27T13:35:09.362Z,47.40
2019-01-27T13:37:44.001Z,48.20
2019-01-27T13:40:23.146Z,48.00
2019-01-27T13:42:58.290Z,47.20
2019-01-27T13:45:33.375Z,48.00
2019-01-27T13:48:07.941Z,48.90
2019-01-27T13:50:42.696Z,48.10
2019-01-27T13:53:17.675Z,48.40
2019-01-27T13:55:51.854Z,48.60
2019-01-27T13:58:27.119Z,48.70
2019-01-27T14:01:01.569Z,48.90
2019-01-27T14:03:36.197Z,49.00
2019-01-27T14:06:11.015Z,49.10
2019-01-27T14:08:45.851Z,49.30
2019-01-27T14:11:22.286Z,49.50
2019-01-27T14:13:56.851Z,49.60
2019-01-27T14:16:31.806Z,49.70
2019-01-27T14:19:06.446Z,49.80
2019-01-27T14:21:41.408Z,49.90
2019-01-27T14:24:17.064Z,50.00
2019-01-27T14:26:52.199Z,50.00
2019-01-27T14:29:27.172Z,49.90
2019-01-27T14:32:09.168Z,50.10
2019-01-27T14:34:43.644Z,50.10
2019-01-27T14:37:18.879Z,50.10
2019-01-27T14:39:53.723Z,50.10
2019-01-27T14:42:28.459Z,50.20
2019-01-27T14:45:03.589Z,50.30
2019-01-27T14:47:38.141Z,50.20
2019-01-27T14:50:16.534Z,50.20
2019-01-27T14:52:51.076Z,50.20
2019-01-27T14:55:25.897Z,50.30
2019-01-27T14:58:00.521Z,50.40
2019-01-27T15:00:37.384Z,50.40
2019-01-27T15:03:12.678Z,50.50
2019-01-27T15:05:47.842Z,50.50
2019-01-27T15:08:22.681Z,51.20
2019-01-27T15:10:57.877Z,50.50
2019-01-27T15:13:50.337Z,50.60
2019-01-27T15:16:25.165Z,50.50
2019-01-27T15:18:59.857Z,50.60
2019-01-27T15:21:35.461Z,50.70
2019-01-27T15:24:10.262Z,50.80
2019-01-27T15:26:45.112Z,50.80
2019-01-27T15:29:19.912Z,50.80
2019-01-27T15:31:54.703Z,50.80
2019-01-27T15:34:29.883Z,50.90
2019-01-27T15:37:04.545Z,50.90
2019-01-27T15:39:39.926Z,51.00
2019-01-27T15:42:14.672Z,51.00
2019-01-27T15:44:49.283Z,51.00
2019-01-27T15:47:24.247Z,51.20
2019-01-27T15:50:17.595Z,51.10
2019-01-27T15:52:52.367Z,51.10
2019-01-27T15:55:27.377Z,51.20
2019-01-27T15:58:02.272Z,51.20
2019-01-27T16:00:37.457Z,51.30
2019-01-27T16:03:11.966Z,51.30
2019-01-27T16:05:46.969Z,51.40
2019-01-27T16:08:21.550Z,51.40
2019-01-27T16:10:56.282Z,51.40
2019-01-27T16:13:31.201Z,51.50
2019-01-27T16:16:05.632Z,51.50
2019-01-27T16:18:40.619Z,51.40
2019-01-27T16:21:34.274Z,51.50
2019-01-27T16:24:19.136Z,51.50
2019-01-27T16:26:54.299Z,51.50
2019-01-27T16:29:44.665Z,51.60
2019-01-27T16:32:37.209Z,51.60
2019-01-27T16:35:16.499Z,51.60
2019-01-27T16:37:51.183Z,51.60
2019-01-27T16:40:27.146Z,51.70
2019-01-27T16:43:01.690Z,51.60
2019-01-27T16:45:36.408Z,51.70
2019-01-27T16:48:11.213Z,51.80
2019-01-27T16:50:45.614Z,51.80
2019-01-27T16:53:20.538Z,51.80
2019-01-27T16:55:55.238Z,51.80
2019-01-27T16:58:30.141Z,51.90
2019-01-27T17:01:04.735Z,52.00
2019-01-27T17:03:39.710Z,52.60
2019-01-27T17:06:14.501Z,52.00
2019-01-27T17:08:49.877Z,52.00
2019-01-27T17:11:24.331Z,52.00
2019-01-27T17:13:59.368Z,52.00
2019-01-27T17:16:34.063Z,52.10
2019-01-27T17:19:08.863Z,52.20
2019-01-27T17:21:43.542Z,52.10
2019-01-27T17:24:18.207Z,52.20
2019-01-27T17:26:53.188Z,52.20
2019-01-27T17:29:28.350Z,52.20
2019-01-27T17:32:03.010Z,52.20
2019-01-27T17:34:37.652Z,52.20
2019-01-27T17:37:12.214Z,52.20
2019-01-27T17:40:06.006Z,52.30
2019-01-27T17:42:41.172Z,52.30
2019-01-27T17:45:18.642Z,52.30
2019-01-27T17:47:53.453Z,52.40
2019-01-27T17:50:27.878Z,52.30
2019-01-27T17:53:22.531Z,52.40
2019-01-27T17:55:57.299Z,52.50
2019-01-27T17:58:57.434Z,52.50
2019-01-27T18:02:06.660Z,52.50
2019-01-27T18:05:02.576Z,52.50
2019-01-27T18:07:44.800Z,52.60
2019-01-27T18:10:38.654Z,52.60
2019-01-27T18:13:27.374Z,52.70
2019-01-27T18:16:03.437Z,52.60
2019-01-27T18:18:38.036Z,52.70
2019-01-27T18:21:12.908Z,52.60
2019-01-27T18:23:48.261Z,52.60
2019-01-27T18:26:22.483Z,52.60
2019-01-27T18:28:57.126Z,52.60
2019-01-27T18:31:31.444Z,52.60
2019-01-27T18:34:06.548Z,52.60
2019-01-27T18:36:41.476Z,52.60
2019-01-27T18:39:17.576Z,52.60
2019-01-27T18:41:52.030Z,52.50
2019-01-27T18:44:45.845Z,52.60
2019-01-27T18:47:22.004Z,52.40
2019-01-27T18:49:57.017Z,52.40
2019-01-27T18:52:32.170Z,52.40
2019-01-27T18:55:28.679Z,52.20
2019-01-27T18:58:13.683Z,52.30
2019-01-27T19:01:13.022Z,52.10
2019-01-27T19:04:06.669Z,52.20
2019-01-27T19:07:17.625Z,52.00
2019-01-27T19:10:09.275Z,52.00
2019-01-27T19:13:10.986Z,52.00
2019-01-27T19:15:54.470Z,52.00
2019-01-27T19:18:46.533Z,52.00
2019-01-27T19:21:53.925Z,52.00
2019-01-27T19:24:39.743Z,52.00
2019-01-27T19:27:42.655Z,52.00
2019-01-27T19:30:46.757Z,52.00
2019-01-27T19:33:32.228Z,51.90
2019-01-27T19:36:30.438Z,51.90
2019-01-27T19:39:22.611Z,51.80
2019-01-27T19:42:21.479Z,51.80
2019-01-27T19:45:32.956Z,51.70
2019-01-27T19:48:26.836Z,51.70
2019-01-27T19:51:10.348Z,51.70
2019-01-27T19:54:04.660Z,51.80
2019-01-27T19:57:00.347Z,51.70
2019-01-27T19:59:58.098Z,51.70
2019-01-27T20:02:42.967Z,51.70
2019-01-27T20:05:34.757Z,51.60
2019-01-27T20:08:15.962Z,51.60
2019-01-27T20:11:19.114Z,52.10
2019-01-27T20:14:18.370Z,51.60
2019-01-27T20:17:12.513Z,51.50
2019-01-27T20:19:55.692Z,51.50
2019-01-27T20:22:39.042Z,51.50
2019-01-27T20:25:35.729Z,51.50
2019-01-27T20:28:27.136Z,51.50
2019-01-27T20:34:26.223Z,51.30
2019-01-27T20:37:37.902Z,51.20
2019-01-27T20:40:32.269Z,51.20
2019-01-27T20:43:34.636Z,51.20
2019-01-27T20:46:30.499Z,51.20
2019-01-27T20:52:59.103Z,51.20
2019-01-27T20:55:51.111Z,51.20
2019-01-27T20:59:02.785Z,51.10
2019-01-27T21:01:45.728Z,51.10
2019-01-27T21:04:37.114Z,51.20
2019-01-27T21:07:39.362Z,51.30
2019-01-27T21:10:32.209Z,51.30
2019-01-27T21:13:16.203Z,51.30
2019-01-27T21:16:08.477Z,51.20
2019-01-27T21:18:54.261Z,51.30
2019-01-27T21:21:29.628Z,51.20
2019-01-27T21:24:04.134Z,51.30
2019-01-27T21:26:56.597Z,51.40
2019-01-27T21:29:32.080Z,51.20
2019-01-27T21:32:08.028Z,51.30
2019-01-27T21:34:42.919Z,51.30
2019-01-27T21:37:20.465Z,51.30
2019-01-27T21:39:55.550Z,51.30
2019-01-27T21:42:30.436Z,51.20
2019-01-27T21:45:05.417Z,51.20
2019-01-27T21:47:40.578Z,51.20
2019-01-27T21:50:17.781Z,51.20
2019-01-27T21:52:52.941Z,51.10
2019-01-27T21:55:27.681Z,51.10
2019-01-27T21:58:02.545Z,51.10
2019-01-27T22:00:37.273Z,51.10
2019-01-27T22:03:12.884Z,51.00
2019-01-27T22:05:47.366Z,50.90
2019-01-27T22:08:23.556Z,50.90
2019-01-27T22:10:58.315Z,50.90
2019-01-27T22:13:52.357Z,50.90
2019-01-27T22:16:27.282Z,50.90
2019-01-27T22:19:02.228Z,50.90
2019-01-27T22:21:37.102Z,50.80
2019-01-27T22:24:12.144Z,50.80
2019-01-27T22:26:46.459Z,50.70
2019-01-27T22:29:21.541Z,50.60
2019-01-27T22:31:56.338Z,50.60
2019-01-27T22:34:31.543Z,50.60
2019-01-27T22:37:06.482Z,50.50
2019-01-27T22:39:46.796Z,50.50
2019-01-27T22:42:21.340Z,50.50
2019-01-27T22:44:56.247Z,50.50
2019-01-27T22:47:30.902Z,50.50
2019-01-27T22:50:06.281Z,50.30
2019-01-27T22:52:41.266Z,50.40
2019-01-27T22:55:16.090Z,51.00
2019-01-27T22:57:50.947Z,50.30
2019-01-27T23:00:53.038Z,50.20
2019-01-27T23:03:28.107Z,50.20
2019-01-27T23:06:03.914Z,50.10
2019-01-27T23:08:38.804Z,50.20
2019-01-27T23:11:13.357Z,50.10
2019-01-27T23:13:47.823Z,50.10
2019-01-27T23:16:22.806Z,50.10
2019-01-27T23:18:57.533Z,50.00
2019-01-27T23:21:33.222Z,50.00
2019-01-27T23:24:07.902Z,50.00
2019-01-27T23:26:42.726Z,50.00
2019-01-27T23:29:17.079Z,50.00
2019-01-27T23:31:52.892Z,50.00
2019-01-27T23:34:27.947Z,50.00
2019-01-27T23:37:02.343Z,50.00
2019-01-27T23:39:37.515Z,50.00
2019-01-27T23:42:12.912Z,49.90
2019-01-27T23:44:47.800Z,49.80
2019-01-27T23:47:22.127Z,49.80
2019-01-27T23:49:56.718Z,49.90
2019-01-27T23:52:31.559Z,49.90
2019-01-27T23:55:06.272Z,49.80
2019-01-27T23:57:40.882Z,49.80
